Time;durP1;ratioP1;P1;durP2;ratioP2;P2;SDS_P1;SDS_P2;PMS_P1;PMS_P2;Temp;Humidity;BMP_temperature;BMP_pressure;BME280_temperature;BME280_humidity;BME280_pressure;Samples;Min_cycle;Max_cycle;Signal;HPM_P1;HPM_P2
2023/09/20 00:00:36;;;;;;;12.90;3.00;;;;;;;;;;4963760;28;20476;-71
2023/09/20 00:03:02;;;;;;;10.30;2.80;;;;;;;;;;4970703;28;20491;-71
2023/09/20 00:05:28;;;;;;;10.93;2.50;;;;;;;;;;4970331;28;20038;-71
2023/09/20 00:07:55;;;;;;;10.65;2.78;;;;;;;;;;4962126;28;20468;-71
2023/09/20 00:10:21;;;;;;;11.40;2.95;;;;;;;;;;4974129;28;20064;-71
2023/09/20 00:12:48;;;;;;;9.63;2.17;;;;;;;;;;4963835;28;20036;-71
2023/09/20 00:15:14;;;;;;;11.65;2.45;;;;;;;;;;4972543;28;20361;-71
2023/09/20 00:17:40;;;;;;;12.20;2.63;;;;;;;;;;4966007;28;20066;-71
2023/09/20 00:20:13;;;;;;;13.38;3.17;;;;;;;;;;4972857;28;20086;-71
2023/09/20 00:22:41;;;;;;;12.20;3.22;;;;;;;;;;4961491;28;20515;-71
2023/09/20 00:25:08;;;;;;;13.13;2.92;;;;;;;;;;4974125;28;20113;-71
2023/09/20 00:27:35;;;;;;;11.57;3.03;;;;;;;;;;4967037;28;20033;-71
2023/09/20 00:30:03;;;;;;;8.27;2.45;;;;;;;;;;4972948;28;20185;-71
2023/09/20 00:32:32;;;;;;;9.20;2.72;;;;;;;;;;4972835;28;20149;-71
2023/09/20 00:34:58;;;;;;;11.88;2.65;;;;;;;;;;4971721;28;20031;-71
2023/09/20 00:37:24;;;;;;;8.98;2.30;;;;;;;;;;4964471;28;20450;-71
2023/09/20 00:39:51;;;;;;;11.50;3.40;;;;;;;;;;4966341;28;20555;-71
2023/09/20 00:42:17;;;;;;;21.38;5.40;;;;;;;;;;4966722;28;20668;-72
2023/09/20 00:44:43;;;;;;;14.93;4.00;;;;;;;;;;4973706;28;20092;-71
2023/09/20 00:47:11;;;;;;;12.32;3.63;;;;;;;;;;4964634;28;20149;-72
2023/09/20 00:49:37;;;;;;;15.15;3.17;;;;;;;;;;4968168;28;20022;-72
2023/09/20 00:52:06;;;;;;;11.93;3.17;;;;;;;;;;4981828;28;20081;-71
2023/09/20 00:54:33;;;;;;;12.68;3.38;;;;;;;;;;4965939;28;20030;-71
2023/09/20 00:56:59;;;;;;;10.15;2.67;;;;;;;;;;4972736;28;20046;-71
2023/09/20 00:59:26;;;;;;;12.43;3.33;;;;;;;;;;4970900;28;20115;-72
2023/09/20 01:01:54;;;;;;;12.88;2.83;;;;;;;;;;4965377;28;20050;-71
2023/09/20 01:04:20;;;;;;;13.40;3.28;;;;;;;;;;4969600;28;20079;-71
2023/09/20 01:06:47;;;;;;;10.45;2.92;;;;;;;;;;4970601;28;20040;-72
2023/09/20 01:09:13;;;;;;;10.27;2.80;;;;;;;;;;4966737;28;20022;-71
2023/09/20 01:11:40;;;;;;;10.52;2.75;;;;;;;;;;4965554;28;20044;-71
2023/09/20 01:14:06;;;;;;;10.43;2.85;;;;;;;;;;4969364;28;20397;-71
2023/09/20 01:16:33;;;;;;;9.80;2.63;;;;;;;;;;4964797;28;20031;-71
2023/09/20 01:19:00;;;;;;;12.68;2.80;;;;;;;;;;4965608;28;20294;-71
2023/09/20 01:21:26;;;;;;;12.90;3.45;;;;;;;;;;4968103;28;20633;-71
2023/09/20 01:23:52;;;;;;;13.27;3.17;;;;;;;;;;4958965;28;20049;-71
2023/09/20 01:26:19;;;;;;;10.30;2.70;;;;;;;;;;4967115;28;20056;-70
2023/09/20 01:28:45;;;;;;;11.68;2.75;;;;;;;;;;4964119;28;20056;-73
2023/09/20 01:31:11;;;;;;;10.95;2.60;;;;;;;;;;4969552;28;20062;-70
2023/09/20 01:33:38;;;;;;;11.30;2.50;;;;;;;;;;4969294;28;20133;-70
2023/09/20 01:36:04;;;;;;;13.32;2.67;;;;;;;;;;4967517;28;20042;-73
2023/09/20 01:38:30;;;;;;;12.82;2.58;;;;;;;;;;4964369;28;20034;-70
2023/09/20 01:40:58;;;;;;;10.70;2.80;;;;;;;;;;4968579;28;20030;-70
2023/09/20 01:43:25;;;;;;;11.00;2.67;;;;;;;;;;4970909;28;20034;-71
2023/09/20 01:45:52;;;;;;;9.32;2.33;;;;;;;;;;4968657;28;20438;-71
2023/09/20 01:48:18;;;;;;;14.75;2.78;;;;;;;;;;4968808;28;20137;-71
2023/09/20 01:50:45;;;;;;;10.82;2.40;;;;;;;;;;4966399;28;20038;-71
2023/09/20 01:53:11;;;;;;;12.45;2.28;;;;;;;;;;4970075;28;20668;-72
2023/09/20 01:55:41;;;;;;;10.63;2.55;;;;;;;;;;4972110;28;20428;-71
2023/09/20 01:58:08;;;;;;;11.80;2.33;;;;;;;;;;4968119;28;20442;-71
2023/09/20 02:00:40;;;;;;;12.88;2.58;;;;;;;;;;4967587;28;20057;-71
2023/09/20 02:03:19;;;;;;;10.73;2.35;;;;;;;;;;4969398;28;20080;-71
2023/09/20 02:05:48;;;;;;;11.60;2.50;;;;;;;;;;4962361;28;20037;-71
2023/09/20 02:08:15;;;;;;;11.23;2.50;;;;;;;;;;4968392;28;20038;-71
2023/09/20 02:10:41;;;;;;;10.52;2.35;;;;;;;;;;4958865;28;20034;-71
2023/09/20 02:13:08;;;;;;;10.82;2.28;;;;;;;;;;4971631;28;20060;-71
2023/09/20 02:15:34;;;;;;;11.75;2.67;;;;;;;;;;4963540;28;20265;-71
2023/09/20 02:18:03;;;;;;;15.25;2.95;;;;;;;;;;4969905;28;20054;-72
2023/09/20 02:20:34;;;;;;;13.20;2.92;;;;;;;;;;4963000;28;20056;-71
2023/09/20 02:23:00;;;;;;;12.10;2.75;;;;;;;;;;4967620;28;20047;-71
2023/09/20 02:25:27;;;;;;;10.68;2.40;;;;;;;;;;4961713;28;20045;-72
2023/09/20 02:27:54;;;;;;;11.88;2.38;;;;;;;;;;4968140;28;20360;-72
2023/09/20 02:30:24;;;;;;;12.07;2.40;;;;;;;;;;4969022;28;20046;-71
2023/09/20 02:32:52;;;;;;;13.13;2.75;;;;;;;;;;4961375;28;20034;-70
2023/09/20 02:35:21;;;;;;;14.82;2.88;;;;;;;;;;4971698;28;20055;-71
2023/09/20 02:37:48;;;;;;;14.82;3.13;;;;;;;;;;4961005;28;20045;-70
2023/09/20 02:40:15;;;;;;;12.30;2.80;;;;;;;;;;4963255;28;20144;-70
2023/09/20 02:42:45;;;;;;;16.45;3.30;;;;;;;;;;4959877;28;20046;-70
2023/09/20 02:45:12;;;;;;;12.45;3.10;;;;;;;;;;4969702;28;20152;-70
2023/09/20 02:47:40;;;;;;;15.88;3.13;;;;;;;;;;4957818;28;20582;-70
2023/09/20 02:50:07;;;;;;;14.65;3.53;;;;;;;;;;4960920;28;20404;-73
2023/09/20 02:52:36;;;;;;;15.30;3.70;;;;;;;;;;4962143;28;20031;-72
2023/09/20 02:55:08;;;;;;;16.00;3.58;;;;;;;;;;4962515;28;20042;-73
2023/09/20 02:57:38;;;;;;;16.98;3.38;;;;;;;;;;4954196;28;20456;-70
2023/09/20 03:00:14;;;;;;;17.35;3.53;;;;;;;;;;4967957;28;20081;-71
2023/09/20 03:02:45;;;;;;;12.73;3.42;;;;;;;;;;4962875;28;20141;-71
2023/09/20 03:05:15;;;;;;;18.52;3.83;;;;;;;;;;4971875;28;20038;-71
2023/09/20 03:07:43;;;;;;;15.77;3.03;;;;;;;;;;4966877;28;20306;-71
2023/09/20 03:10:12;;;;;;;11.48;2.35;;;;;;;;;;4963248;28;20069;-71
2023/09/20 03:12:51;;;;;;;11.77;2.28;;;;;;;;;;4971350;28;20057;-71
2023/09/20 03:15:22;;;;;;;10.23;2.00;;;;;;;;;;4967323;28;20392;-71
2023/09/20 03:17:49;;;;;;;7.68;1.83;;;;;;;;;;4959191;28;20372;-71
2023/09/20 03:20:26;;;;;;;12.77;2.40;;;;;;;;;;4962824;28;20186;-71
2023/09/20 03:22:53;;;;;;;11.13;2.22;;;;;;;;;;4960909;28;20046;-70
2023/09/20 03:25:20;;;;;;;12.77;2.35;;;;;;;;;;4968035;28;20014;-71
2023/09/20 03:27:49;;;;;;;12.63;2.45;;;;;;;;;;4959112;28;20030;-70
2023/09/20 03:30:20;;;;;;;10.25;1.88;;;;;;;;;;4978305;28;20836;-70
2023/09/20 03:32:50;;;;;;;9.32;2.25;;;;;;;;;;4962636;28;20026;-70
2023/09/20 03:35:19;;;;;;;9.10;2.08;;;;;;;;;;4968122;28;20030;-70
2023/09/20 03:37:46;;;;;;;11.25;2.30;;;;;;;;;;4965386;28;20102;-71
2023/09/20 03:40:17;;;;;;;13.05;2.15;;;;;;;;;;4967898;28;20136;-70
2023/09/20 03:42:48;;;;;;;11.23;2.05;;;;;;;;;;4967318;28;20052;-70
2023/09/20 03:45:15;;;;;;;11.30;2.28;;;;;;;;;;4962407;28;20406;-71
2023/09/20 03:47:41;;;;;;;11.73;2.17;;;;;;;;;;4969131;28;20312;-70
2023/09/20 03:50:09;;;;;;;10.98;2.08;;;;;;;;;;4971248;28;20034;-72
2023/09/20 03:52:39;;;;;;;12.88;2.53;;;;;;;;;;4963509;28;20027;-72
2023/09/20 03:55:08;;;;;;;11.43;2.30;;;;;;;;;;4973669;28;20042;-71
2023/09/20 03:57:35;;;;;;;13.52;2.45;;;;;;;;;;4964387;28;20114;-70
2023/09/20 04:00:07;;;;;;;11.45;2.13;;;;;;;;;;4970246;28;20188;-70
2023/09/20 04:02:34;;;;;;;12.45;2.65;;;;;;;;;;4968892;28;20547;-70
2023/09/20 04:05:06;;;;;;;13.63;3.15;;;;;;;;;;4969637;28;20198;-70
2023/09/20 04:07:32;;;;;;;16.08;3.78;;;;;;;;;;4964229;28;20825;-70
2023/09/20 04:09:58;;;;;;;14.68;3.15;;;;;;;;;;4973190;28;20057;-71
2023/09/20 04:12:24;;;;;;;17.17;3.17;;;;;;;;;;4966741;28;20030;-71
2023/09/20 04:14:54;;;;;;;12.95;2.80;;;;;;;;;;4962718;28;20148;-70
2023/09/20 04:17:25;;;;;;;16.75;2.97;;;;;;;;;;4972669;28;21349;-71
2023/09/20 04:19:51;;;;;;;15.32;2.97;;;;;;;;;;4965994;28;20038;-71
2023/09/20 04:22:18;;;;;;;16.20;3.70;;;;;;;;;;4966296;28;20019;-72
2023/09/20 04:24:44;;;;;;;16.85;3.08;;;;;;;;;;4966322;28;20570;-71
2023/09/20 04:27:10;;;;;;;13.98;2.92;;;;;;;;;;4969874;28;20031;-71
2023/09/20 04:29:36;;;;;;;12.75;2.95;;;;;;;;;;4963873;28;20042;-69
2023/09/20 04:32:04;;;;;;;17.70;2.92;;;;;;;;;;4965686;28;20034;-72
2023/09/20 04:34:30;;;;;;;24.90;4.10;;;;;;;;;;4970291;28;20031;-72
2023/09/20 04:36:56;;;;;;;21.05;3.38;;;;;;;;;;4965111;28;20146;-70
2023/09/20 04:39:24;;;;;;;11.60;2.58;;;;;;;;;;4967530;28;20031;-73
2023/09/20 04:41:51;;;;;;;14.88;3.28;;;;;;;;;;4962848;28;20030;-78
2023/09/20 04:44:18;;;;;;;14.65;3.47;;;;;;;;;;4969496;28;20738;-79
2023/09/20 04:46:44;;;;;;;14.48;2.78;;;;;;;;;;4959925;28;20034;-78
2023/09/20 04:49:10;;;;;;;12.00;2.67;;;;;;;;;;4963688;28;20096;-78
2023/09/20 04:51:37;;;;;;;11.48;2.45;;;;;;;;;;4966840;28;20030;-78
2023/09/20 04:54:06;;;;;;;10.05;2.20;;;;;;;;;;4963947;28;20130;-79
2023/09/20 04:56:33;;;;;;;9.68;2.00;;;;;;;;;;4964934;28;20030;-78
2023/09/20 04:58:59;;;;;;;9.38;2.17;;;;;;;;;;4963627;28;20536;-78
2023/09/20 05:01:25;;;;;;;;;;;;;;;;;;4959592;28;20031;-79
2023/09/20 05:03:51;;;;;;;8.73;1.98;;;;;;;;;;4958419;28;19917;-79
2023/09/20 05:06:21;;;;;;;8.38;1.90;;;;;;;;;;4961190;28;20112;-79
2023/09/20 05:08:50;;;;;;;8.90;1.98;;;;;;;;;;4959917;28;20693;-80
2023/09/20 05:11:18;;;;;;;9.32;2.20;;;;;;;;;;4961299;28;20563;-80
2023/09/20 05:13:44;;;;;;;8.55;2.00;;;;;;;;;;4958582;28;20069;-80
2023/09/20 05:16:10;;;;;;;10.32;1.75;;;;;;;;;;4963646;28;20037;-78
2023/09/20 05:18:37;;;;;;;7.47;1.90;;;;;;;;;;4962146;28;20144;-79
2023/09/20 05:21:03;;;;;;;8.95;2.00;;;;;;;;;;4961950;28;20030;-78
2023/09/20 05:23:29;;;;;;;7.70;1.80;;;;;;;;;;4963287;28;20066;-78
2023/09/20 05:25:56;;;;;;;9.20;2.03;;;;;;;;;;4964926;28;20026;-78
2023/09/20 05:28:22;;;;;;;9.35;2.10;;;;;;;;;;4963953;28;20057;-80
2023/09/20 05:30:49;;;;;;;9.27;1.65;;;;;;;;;;4956775;28;20034;-80
2023/09/20 05:33:15;;;;;;;8.30;1.75;;;;;;;;;;4965024;28;20057;-78
2023/09/20 05:35:43;;;;;;;9.85;1.83;;;;;;;;;;4960579;28;20042;-77
2023/09/20 05:38:10;;;;;;;7.22;1.60;;;;;;;;;;4962887;28;20037;-79
2023/09/20 05:40:37;;;;;;;7.85;1.65;;;;;;;;;;4969753;28;20026;-77
2023/09/20 05:43:04;;;;;;;10.68;1.88;;;;;;;;;;4961426;28;20061;-78
2023/09/20 05:45:31;;;;;;;7.00;1.80;;;;;;;;;;4963217;28;20052;-78
2023/09/20 05:47:58;;;;;;;11.00;1.98;;;;;;;;;;4960999;28;20088;-78
2023/09/20 05:50:33;;;;;;;8.07;1.60;;;;;;;;;;4962698;28;20673;-78
2023/09/20 05:53:12;;;;;;;12.32;2.47;;;;;;;;;;4963959;28;20133;-78
2023/09/20 05:55:44;;;;;;;8.82;2.17;;;;;;;;;;4960541;28;20026;-78
2023/09/20 05:58:12;;;;;;;8.77;2.30;;;;;;;;;;4964001;28;20038;-77
2023/09/20 06:00:38;;;;;;;7.40;1.85;;;;;;;;;;4959497;28;20030;-77
2023/09/20 06:03:04;;;;;;;8.23;1.95;;;;;;;;;;4959469;28;20088;-77
2023/09/20 06:05:37;;;;;;;9.05;2.13;;;;;;;;;;4957259;28;20298;-77
2023/09/20 06:08:06;;;;;;;8.85;1.80;;;;;;;;;;4962864;28;20043;-77
2023/09/20 06:10:32;;;;;;;6.70;1.83;;;;;;;;;;4960883;28;20034;-78
2023/09/20 06:12:58;;;;;;;7.45;1.52;;;;;;;;;;4963423;28;20072;-77
2023/09/20 06:15:25;;;;;;;7.15;1.83;;;;;;;;;;4962903;28;20065;-77
2023/09/20 06:17:52;;;;;;;6.97;1.60;;;;;;;;;;4956844;28;20497;-77
2023/09/20 06:20:22;;;;;;;8.18;1.90;;;;;;;;;;4961131;28;20473;-77
2023/09/20 06:22:49;;;;;;;9.05;1.90;;;;;;;;;;4971411;28;20026;-80
2023/09/20 06:25:16;;;;;;;7.45;1.63;;;;;;;;;;4963097;28;20026;-77
2023/09/20 06:27:42;;;;;;;8.68;2.08;;;;;;;;;;4959851;28;20039;-77
2023/09/20 06:30:15;;;;;;;8.50;1.83;;;;;;;;;;4964631;28;20030;-77
2023/09/20 06:32:42;;;;;;;6.88;1.60;;;;;;;;;;4958418;28;20432;-77
2023/09/20 06:35:09;;;;;;;6.35;1.58;;;;;;;;;;4961223;28;20040;-76
2023/09/20 06:37:36;;;;;;;7.57;1.70;;;;;;;;;;4957622;28;20038;-79
2023/09/20 06:40:12;;;;;;;8.73;1.70;;;;;;;;;;4964062;28;20027;-79
2023/09/20 06:42:39;;;;;;;7.75;1.70;;;;;;;;;;4962170;28;20202;-79
2023/09/20 06:45:08;;;;;;;10.15;1.75;;;;;;;;;;4961986;28;20035;-79
2023/09/20 06:47:34;;;;;;;9.40;1.70;;;;;;;;;;4971491;28;20035;-78
2023/09/20 06:50:03;;;;;;;7.68;1.80;;;;;;;;;;4962217;28;20463;-79
2023/09/20 06:52:30;;;;;;;6.57;1.60;;;;;;;;;;4966643;28;20092;-79
2023/09/20 06:54:56;;;;;;;8.73;1.80;;;;;;;;;;4960903;28;20177;-76
2023/09/20 06:57:22;;;;;;;6.78;1.40;;;;;;;;;;4964978;28;20042;-78
2023/09/20 06:59:52;;;;;;;9.18;1.80;;;;;;;;;;4961988;28;20031;-78
2023/09/20 07:02:19;;;;;;;8.20;1.67;;;;;;;;;;4959335;28;20019;-79
2023/09/20 07:04:47;;;;;;;7.70;1.58;;;;;;;;;;4963014;28;20030;-79
2023/09/20 07:07:13;;;;;;;7.95;1.80;;;;;;;;;;4964756;28;20220;-79
2023/09/20 07:09:40;;;;;;;6.32;1.35;;;;;;;;;;4962532;28;20034;-79
2023/09/20 07:12:07;;;;;;;5.95;1.50;;;;;;;;;;4980341;28;20578;-78
2023/09/20 07:14:33;;;;;;;6.57;1.60;;;;;;;;;;4965232;28;20253;-79
2023/09/20 07:17:00;;;;;;;7.43;1.50;;;;;;;;;;4967631;28;20018;-79
2023/09/20 07:19:29;;;;;;;7.47;1.50;;;;;;;;;;4964068;28;20339;-78
2023/09/20 07:21:56;;;;;;;8.48;2.13;;;;;;;;;;4966634;28;20042;-78
2023/09/20 07:24:24;;;;;;;5.25;1.30;;;;;;;;;;4968817;28;20039;-78
2023/09/20 07:26:51;;;;;;;7.65;1.38;;;;;;;;;;4964833;28;20812;-77
2023/09/20 07:29:18;;;;;;;4.63;0.90;;;;;;;;;;4964981;28;20046;-77
2023/09/20 07:31:45;;;;;;;7.68;1.10;;;;;;;;;;4966447;28;20034;-80
2023/09/20 07:34:13;;;;;;;4.20;0.90;;;;;;;;;;4965793;28;20222;-77
2023/09/20 07:36:49;;;;;;;4.78;0.90;;;;;;;;;;4965670;28;20607;-77
2023/09/20 07:39:20;;;;;;;6.53;1.13;;;;;;;;;;4983130;28;20557;-77
2023/09/20 07:41:46;;;;;;;7.70;1.40;;;;;;;;;;4964488;28;20497;-77
2023/09/20 07:44:13;;;;;;;6.95;1.20;;;;;;;;;;4969051;28;20042;-78
2023/09/20 07:46:42;;;;;;;7.43;1.20;;;;;;;;;;4964053;28;20023;-78
2023/09/20 07:49:13;;;;;;;5.97;1.30;;;;;;;;;;4965486;28;20096;-78
2023/09/20 07:51:40;;;;;;;7.03;1.20;;;;;;;;;;4964425;28;20509;-78
2023/09/20 07:54:09;;;;;;;8.05;1.45;;;;;;;;;;4965375;28;20570;-78
2023/09/20 07:56:36;;;;;;;7.75;1.38;;;;;;;;;;4963653;28;20030;-77
2023/09/20 07:59:04;;;;;;;6.03;1.10;;;;;;;;;;4964956;28;20514;-77
2023/09/20 08:01:31;;;;;;;5.13;1.20;;;;;;;;;;4978077;28;20436;-78
2023/09/20 08:04:00;;;;;;;5.10;1.17;;;;;;;;;;4969269;28;20436;-77
2023/09/20 08:06:27;;;;;;;4.97;1.08;;;;;;;;;;4961993;28;20754;-77
2023/09/20 08:08:55;;;;;;;5.40;1.20;;;;;;;;;;4966119;28;20310;-76
2023/09/20 08:11:21;;;;;;;5.20;1.10;;;;;;;;;;4963309;28;20034;-76
2023/09/20 08:13:47;;;;;;;3.55;1.08;;;;;;;;;;4965757;28;20131;-78
2023/09/20 08:16:14;;;;;;;4.68;0.90;;;;;;;;;;4964049;28;20038;-77
2023/09/20 08:21:25;;;;;;;5.57;1.25;;;;;;;;;;4966005;28;20092;-77
2023/09/20 08:59:50;;;;;;;7.13;2.28;;;;;;;;;;4962417;28;20057;-79
2023/09/20 09:02:17;;;;;;;10.63;2.30;;;;;;;;;;4966380;28;20449;-77
2023/09/20 09:04:53;;;;;;;9.13;2.15;;;;;;;;;;4961488;28;20463;-76
2023/09/20 09:07:22;;;;;;;9.32;2.05;;;;;;;;;;4966280;28;20030;-76
2023/09/20 09:09:49;;;;;;;8.27;1.55;;;;;;;;;;4960009;28;20117;-79
2023/09/20 09:12:15;;;;;;;7.25;1.50;;;;;;;;;;4969915;28;20053;-78
2023/09/20 09:14:42;;;;;;;5.60;1.08;;;;;;;;;;4959017;28;20201;-78
2023/09/20 09:17:09;;;;;;;7.25;1.30;;;;;;;;;;4972473;28;20038;-78
2023/09/20 09:19:35;;;;;;;6.50;1.10;;;;;;;;;;4963094;28;20029;-78
2023/09/20 09:22:02;;;;;;;9.57;1.42;;;;;;;;;;4965481;28;20108;-79
2023/09/20 09:24:32;;;;;;;8.60;1.60;;;;;;;;;;4961606;28;20392;-79
2023/09/20 09:27:05;;;;;;;7.72;1.25;;;;;;;;;;4962781;28;20041;-77
2023/09/20 09:29:31;;;;;;;8.40;1.40;;;;;;;;;;4974126;28;20042;-77
2023/09/20 09:32:00;;;;;;;9.13;1.30;;;;;;;;;;4964935;28;20061;-79
2023/09/20 09:34:27;;;;;;;10.10;1.50;;;;;;;;;;4964349;28;20038;-77
2023/09/20 09:36:53;;;;;;;9.50;1.67;;;;;;;;;;4958469;28;20026;-77
2023/09/20 09:39:19;;;;;;;6.65;1.40;;;;;;;;;;4963106;28;20338;-77
2023/09/20 09:41:46;;;;;;;10.57;1.42;;;;;;;;;;4962062;28;20030;-77
2023/09/20 09:44:13;;;;;;;7.70;1.52;;;;;;;;;;4965963;28;20053;-77
2023/09/20 09:46:39;;;;;;;8.35;1.50;;;;;;;;;;4964165;28;20026;-77
2023/09/20 09:49:12;;;;;;;10.02;1.60;;;;;;;;;;4964822;28;20207;-78
2023/09/20 09:51:50;;;;;;;9.35;1.70;;;;;;;;;;4966141;28;20026;-77
2023/09/20 09:54:17;;;;;;;8.35;1.67;;;;;;;;;;4963955;28;20027;-77
2023/09/20 09:56:43;;;;;;;10.32;1.85;;;;;;;;;;4978845;28;20121;-77
2023/09/20 09:59:10;;;;;;;7.97;1.70;;;;;;;;;;4969436;28;20038;-77
2023/09/20 10:01:37;;;;;;;8.15;1.30;;;;;;;;;;4964609;28;20034;-77
2023/09/20 10:04:13;;;;;;;9.57;1.42;;;;;;;;;;4962684;28;20323;-77
2023/09/20 10:06:45;;;;;;;7.68;1.25;;;;;;;;;;4959216;28;20029;-78
2023/09/20 10:09:12;;;;;;;7.97;1.25;;;;;;;;;;4962532;28;20085;-78
2023/09/20 10:11:41;;;;;;;7.72;1.50;;;;;;;;;;4962349;28;20336;-76
2023/09/20 10:14:09;;;;;;;7.30;1.20;;;;;;;;;;4966402;28;20121;-76
2023/09/20 10:16:35;;;;;;;8.82;1.60;;;;;;;;;;4964161;28;20592;-77
2023/09/20 10:19:03;;;;;;;7.03;1.40;;;;;;;;;;4964503;28;20050;-77
2023/09/20 10:21:32;;;;;;;9.52;1.20;;;;;;;;;;4960820;28;20116;-77
2023/09/20 10:24:17;;;;;;;6.45;1.30;;;;;;;;;;4967326;28;20080;-77
2023/09/20 10:26:43;;;;;;;6.78;1.20;;;;;;;;;;4957989;28;20019;-77
2023/09/20 10:29:30;;;;;;;4.95;1.00;;;;;;;;;;4965815;28;20045;-77
2023/09/20 10:31:57;;;;;;;6.88;1.20;;;;;;;;;;4966084;28;20285;-76
2023/09/20 10:34:23;;;;;;;5.95;1.10;;;;;;;;;;4963943;28;20516;-76
2023/09/20 10:36:51;;;;;;;5.35;1.10;;;;;;;;;;4959478;28;22652;-79
2023/09/20 10:39:18;;;;;;;7.97;1.35;;;;;;;;;;4964817;28;20034;-77
2023/09/20 10:41:45;;;;;;;6.20;1.38;;;;;;;;;;4959036;28;20344;-78
2023/09/20 10:44:32;;;;;;;8.90;1.55;;;;;;;;;;4964771;28;20050;-76
2023/09/20 10:46:59;;;;;;;10.02;1.40;;;;;;;;;;4965318;28;20587;-78
2023/09/20 10:49:47;;;;;;;10.13;1.35;;;;;;;;;;4965583;28;20041;-78
2023/09/20 10:52:33;;;;;;;6.65;1.48;;;;;;;;;;4969845;28;20699;-77
2023/09/20 10:55:22;;;;;;;8.48;1.48;;;;;;;;;;4971093;28;20034;-76
2023/09/20 10:57:49;;;;;;;9.93;2.72;;;;;;;;;;4965236;28;20030;-78
2023/09/20 11:00:22;;;;;;;8.70;1.50;;;;;;;;;;4965057;28;20033;-78
2023/09/20 11:02:52;;;;;;;8.20;1.40;;;;;;;;;;4962213;28;20553;-78
2023/09/20 11:05:18;;;;;;;8.70;1.52;;;;;;;;;;4964489;28;20027;-76
2023/09/20 11:07:45;;;;;;;8.43;1.50;;;;;;;;;;4962748;28;20402;-76
2023/09/20 11:10:13;;;;;;;8.02;1.40;;;;;;;;;;4965769;28;20034;-76
2023/09/20 11:12:45;;;;;;;7.57;1.40;;;;;;;;;;4963531;28;20049;-76
2023/09/20 11:15:14;;;;;;;6.68;1.38;;;;;;;;;;4968121;28;20096;-76
2023/09/20 11:17:40;;;;;;;6.22;1.42;;;;;;;;;;4966146;28;20060;-76
2023/09/20 11:20:11;;;;;;;6.03;1.13;;;;;;;;;;4968266;28;20302;-77
2023/09/20 11:22:38;;;;;;;4.65;0.90;;;;;;;;;;4964789;28;20038;-77
2023/09/20 11:25:07;;;;;;;9.35;1.42;;;;;;;;;;4967505;28;20042;-77
2023/09/20 11:27:34;;;;;;;4.50;1.10;;;;;;;;;;4978817;28;20482;-76
2023/09/20 11:30:11;;;;;;;7.47;1.30;;;;;;;;;;4966699;28;20317;-76
2023/09/20 11:32:40;;;;;;;3.03;0.88;;;;;;;;;;4964020;28;20495;-78
2023/09/20 11:35:09;;;;;;;7.50;1.20;;;;;;;;;;4966519;28;20157;-78
2023/09/20 11:37:35;;;;;;;7.07;1.40;;;;;;;;;;4964680;28;20091;-78
2023/09/20 11:40:04;;;;;;;8.15;1.30;;;;;;;;;;4965823;28;20138;-78
2023/09/20 11:42:32;;;;;;;10.77;1.23;;;;;;;;;;4965269;28;20915;-76
2023/09/20 11:45:01;;;;;;;7.03;1.63;;;;;;;;;;4963905;28;20059;-76
2023/09/20 11:47:31;;;;;;;4.95;1.00;;;;;;;;;;4968076;28;20308;-76
2023/09/20 11:49:57;;;;;;;8.02;1.20;;;;;;;;;;4968433;28;20497;-76
2023/09/20 11:52:24;;;;;;;8.18;1.30;;;;;;;;;;4976372;28;20052;-77
2023/09/20 11:54:50;;;;;;;7.40;1.25;;;;;;;;;;4965254;28;20046;-76
2023/09/20 11:57:17;;;;;;;8.02;1.30;;;;;;;;;;4960019;28;20499;-78
2023/09/20 11:59:44;;;;;;;10.82;1.55;;;;;;;;;;4960491;28;20031;-78
2023/09/20 12:02:12;;;;;;;9.38;1.27;;;;;;;;;;4961551;28;20039;-79
2023/09/20 12:04:38;;;;;;;8.43;1.73;;;;;;;;;;4966574;28;20117;-78
2023/09/20 12:07:08;;;;;;;7.05;1.40;;;;;;;;;;4966323;28;20035;-78
2023/09/20 12:09:36;;;;;;;6.38;1.30;;;;;;;;;;4961427;28;20037;-78
2023/09/20 12:12:05;;;;;;;7.22;1.45;;;;;;;;;;4965887;28;20038;-78
2023/09/20 12:14:32;;;;;;;8.88;1.60;;;;;;;;;;4959754;28;20183;-76
2023/09/20 12:16:58;;;;;;;8.57;1.50;;;;;;;;;;4965557;28;20125;-76
2023/09/20 12:19:25;;;;;;;7.35;1.33;;;;;;;;;;4963180;28;20030;-76
2023/09/20 12:21:51;;;;;;;7.70;1.48;;;;;;;;;;4961825;28;20042;-77
2023/09/20 12:24:17;;;;;;;8.23;1.50;;;;;;;;;;4963011;28;20692;-76
2023/09/20 12:26:45;;;;;;;9.68;1.50;;;;;;;;;;4960511;28;20631;-76
2023/09/20 12:29:11;;;;;;;8.48;1.35;;;;;;;;;;4960093;28;20125;-76
2023/09/20 12:31:37;;;;;;;8.55;1.55;;;;;;;;;;4960451;28;20065;-77
2023/09/20 12:34:03;;;;;;;6.18;1.20;;;;;;;;;;4960926;28;20034;-71
2023/09/20 12:36:30;;;;;;;9.15;1.50;;;;;;;;;;4956179;28;20041;-73
2023/09/20 12:38:57;;;;;;;6.30;1.30;;;;;;;;;;4954834;28;20084;-77
2023/09/20 12:41:26;;;;;;;6.25;1.30;;;;;;;;;;4962615;28;20772;-77
2023/09/20 12:43:52;;;;;;;7.10;1.40;;;;;;;;;;4958106;28;20145;-78
2023/09/20 12:46:19;;;;;;;10.05;1.50;;;;;;;;;;4959022;28;20418;-76
2023/09/20 12:48:45;;;;;;;8.15;1.50;;;;;;;;;;4958105;28;20026;-77
2023/09/20 12:51:12;;;;;;;4.70;1.02;;;;;;;;;;4962647;28;20038;-77
2023/09/20 12:53:39;;;;;;;5.63;1.33;;;;;;;;;;4958744;28;20027;-77
2023/09/20 12:56:07;;;;;;;7.57;1.30;;;;;;;;;;4960260;28;20373;-77
2023/09/20 12:58:34;;;;;;;6.38;1.50;;;;;;;;;;4957929;28;20034;-77
2023/09/20 13:01:00;;;;;;;7.47;1.38;;;;;;;;;;4959779;28;20026;-77
2023/09/20 13:03:29;;;;;;;7.88;1.55;;;;;;;;;;4959872;28;20263;-79
2023/09/20 13:05:55;;;;;;;5.82;1.30;;;;;;;;;;4978122;28;20034;-76
2023/09/20 13:08:21;;;;;;;7.47;1.30;;;;;;;;;;4959723;28;20468;-76
2023/09/20 13:10:51;;;;;;;7.85;1.20;;;;;;;;;;4956331;28;20135;-78
2023/09/20 13:13:18;;;;;;;6.70;1.23;;;;;;;;;;4957426;28;20515;-76
2023/09/20 13:15:44;;;;;;;9.43;1.70;;;;;;;;;;4953701;28;20132;-76
2023/09/20 13:18:11;;;;;;;8.13;1.50;;;;;;;;;;4960248;28;20223;-78
2023/09/20 13:20:41;;;;;;;8.00;1.40;;;;;;;;;;4957608;28;20026;-76
2023/09/20 13:23:07;;;;;;;6.63;1.25;;;;;;;;;;4955371;28;20030;-78
2023/09/20 13:25:34;;;;;;;6.68;1.35;;;;;;;;;;4953158;28;20375;-78
2023/09/20 13:28:00;;;;;;;8.88;1.67;;;;;;;;;;4960748;28;20061;-79
2023/09/20 13:30:27;;;;;;;9.80;1.45;;;;;;;;;;4965807;28;20483;-76
2023/09/20 13:32:53;;;;;;;10.50;1.55;;;;;;;;;;4954100;28;20033;-76
2023/09/20 13:35:19;;;;;;;8.73;1.42;;;;;;;;;;4958388;28;20045;-76
2023/09/20 13:37:46;;;;;;;6.38;1.52;;;;;;;;;;4954830;28;20464;-79
2023/09/20 13:40:15;;;;;;;7.65;1.35;;;;;;;;;;4959313;28;20035;-77
2023/09/20 13:42:43;;;;;;;6.30;1.20;;;;;;;;;;4968162;28;20046;-78
2023/09/20 13:45:10;;;;;;;8.25;1.70;;;;;;;;;;4963559;28;20042;-76
2023/09/20 13:47:39;;;;;;;8.77;1.65;;;;;;;;;;4956141;28;20566;-76
2023/09/20 13:50:07;;;;;;;6.45;1.48;;;;;;;;;;4959503;28;20038;-76
2023/09/20 13:52:33;;;;;;;6.28;1.33;;;;;;;;;;4956765;28;20030;-75
2023/09/20 13:55:00;;;;;;;7.60;1.30;;;;;;;;;;4959814;28;20104;-75
2023/09/20 13:57:26;;;;;;;6.55;1.40;;;;;;;;;;4964656;28;20034;-76
2023/09/20 13:59:54;;;;;;;7.43;1.33;;;;;;;;;;4955831;28;20117;-76
2023/09/20 14:02:22;;;;;;;7.28;1.20;;;;;;;;;;4956765;28;20353;-77
2023/09/20 14:04:48;;;;;;;6.93;1.40;;;;;;;;;;4952817;28;20620;-76
2023/09/20 14:07:15;;;;;;;10.63;2.15;;;;;;;;;;4957712;28;20037;-77
2023/09/20 14:09:42;;;;;;;8.48;1.73;;;;;;;;;;4959354;28;20062;-76
2023/09/20 14:12:09;;;;;;;6.53;1.23;;;;;;;;;;4960085;28;20034;-77
2023/09/20 14:14:35;;;;;;;7.35;1.58;;;;;;;;;;4955014;28;20053;-75
2023/09/20 14:17:03;;;;;;;9.15;1.67;;;;;;;;;;4959089;28;20374;-73
2023/09/20 14:19:30;;;;;;;5.95;1.20;;;;;;;;;;4955202;28;20555;-74
2023/09/20 14:21:57;;;;;;;5.70;1.30;;;;;;;;;;4961001;28;20030;-73
2023/09/20 14:24:23;;;;;;;8.85;1.58;;;;;;;;;;4962342;28;20762;-74
2023/09/20 14:26:51;;;;;;;7.63;1.17;;;;;;;;;;4956274;28;20022;-73
2023/09/20 14:29:17;;;;;;;9.75;1.40;;;;;;;;;;4956685;28;20034;-74
2023/09/20 14:31:45;;;;;;;7.75;1.42;;;;;;;;;;4953557;28;20034;-73
2023/09/20 14:34:12;;;;;;;8.75;1.55;;;;;;;;;;4955657;28;20034;-73
2023/09/20 14:36:38;;;;;;;9.52;1.50;;;;;;;;;;4964858;28;20040;-73
2023/09/20 14:39:05;;;;;;;8.50;1.50;;;;;;;;;;4956674;28;20335;-73
2023/09/20 14:41:31;;;;;;;6.97;1.42;;;;;;;;;;4955052;28;20437;-73
2023/09/20 14:43:57;;;;;;;9.18;1.38;;;;;;;;;;4958257;28;20057;-74
2023/09/20 14:46:23;;;;;;;8.13;1.55;;;;;;;;;;4962251;28;20220;-74
2023/09/20 14:48:49;;;;;;;6.97;1.52;;;;;;;;;;4954541;28;20109;-73
2023/09/20 14:51:17;;;;;;;7.82;1.40;;;;;;;;;;4959880;28;20034;-73
2023/09/20 14:53:44;;;;;;;10.18;1.70;;;;;;;;;;4966117;28;20034;-73
2023/09/20 14:56:11;;;;;;;6.65;1.58;;;;;;;;;;4956476;28;20108;-75
2023/09/20 14:58:37;;;;;;;8.98;1.63;;;;;;;;;;4957200;28;20120;-73
2023/09/20 15:01:16;;;;;;;11.93;1.92;;;;;;;;;;4956147;28;20037;-74
2023/09/20 15:03:43;;;;;;;10.52;1.65;;;;;;;;;;4954110;28;20055;-73
2023/09/20 15:06:18;;;;;;;7.97;1.50;;;;;;;;;;4955524;28;20259;-74
2023/09/20 15:08:46;;;;;;;8.00;1.60;;;;;;;;;;4952954;28;20384;-74
2023/09/20 15:11:13;;;;;;;8.00;1.63;;;;;;;;;;4962332;28;20041;-73
2023/09/20 15:13:39;;;;;;;7.93;1.83;;;;;;;;;;4957889;28;20073;-73
2023/09/20 15:16:10;;;;;;;8.15;1.80;;;;;;;;;;4959608;28;20034;-73
2023/09/20 15:18:37;;;;;;;10.15;1.90;;;;;;;;;;4953481;28;20038;-73
2023/09/20 15:21:07;;;;;;;8.27;1.80;;;;;;;;;;4953705;28;20503;-76